Time;durP1;ratioP1;P1;durP2;ratioP2;P2;SDS_P1;SDS_P2;PMS_P1;PMS_P2;Temp;Humidity;BMP_temperature;BMP_pressure;BME280_temperature;BME280_humidity;BME280_pressure;Samples;Min_cycle;Max_cycle;Signal;HPM_P1;HPM_P2
2022/08/05 00:01:40;;;;;;;14.20;4.05;;;24.60;65.10;;;;;;7393993;19;20025;-92
2022/08/05 00:04:08;;;;;;;;;;;24.40;63.90;;;;;;7397857;19;20023;-91
2022/08/05 00:06:40;;;;;;;15.30;3.80;;;24.30;63.90;;;;;;7419290;19;19923;-92
2022/08/05 00:09:09;;;;;;;12.10;3.67;;;23.90;64.50;;;;;;7394927;19;20022;-92
2022/08/05 00:11:38;;;;;;;12.75;3.75;;;23.60;64.70;;;;;;7395635;19;20006;-91
2022/08/05 00:14:07;;;;;;;9.85;3.92;;;23.50;65.70;;;;;;7401725;19;20012;-91
2022/08/05 00:16:36;;;;;;;9.98;3.30;;;23.50;66.80;;;;;;7403108;19;20015;-91
2022/08/05 00:19:07;;;;;;;13.40;3.80;;;23.60;66.90;;;;;;7232015;19;2845940;-86
2022/08/05 00:21:36;;;;;;;;;;;23.50;66.20;;;;;;7423897;19;20019;-90
2022/08/05 00:24:05;;;;;;;10.32;3.92;;;23.60;66.80;;;;;;7367896;19;19911;-90
2022/08/05 00:26:34;;;;;;;12.13;3.78;;;23.60;67.80;;;;;;7324925;19;20111;-90
2022/08/05 00:31:38;;;;;;;14.95;3.35;;;23.90;68.10;;;;;;7358636;19;20193;-86
2022/08/05 00:36:45;;;;;;;10.52;3.65;;;24.00;66.60;;;;;;7389833;19;20013;-90
2022/08/05 00:41:50;;;;;;;10.68;3.22;;;23.90;65.50;;;;;;7288250;19;20957;-84
2022/08/05 00:44:18;;;;;;;11.45;3.40;;;23.60;65.00;;;;;;7366525;19;19994;-85
2022/08/05 00:46:47;;;;;;;8.98;3.03;;;23.70;67.10;;;;;;7406475;19;20006;-91
2022/08/05 00:49:18;;;;;;;7.25;3.05;;;23.90;67.70;;;;;;7406379;19;20006;-93
2022/08/05 00:51:49;;;;;;;11.23;2.97;;;23.90;64.30;;;;;;7428634;19;20002;-92
2022/08/05 00:54:17;;;;;;;;;;;24.00;65.60;;;;;;7339003;19;20026;-90
2022/08/05 01:02:09;;;;;;;10.43;3.20;;;23.90;63.80;;;;;;7383466;19;20003;-85
2022/08/05 01:04:38;;;;;;;9.25;3.03;;;23.80;63.80;;;;;;7390066;19;20393;-91
2022/08/05 01:07:09;;;;;;;9.05;3.03;;;23.80;62.90;;;;;;7403240;19;20021;-92
2022/08/05 01:09:37;;;;;;;;;;;23.80;63.30;;;;;;7424895;19;20003;-91
2022/08/05 01:12:10;;;;;;;5.07;2.70;;;23.60;62.40;;;;;;7390853;19;20033;-93
2022/08/05 01:14:46;;;;;;;8.55;2.90;;;23.40;62.40;;;;;;7385379;19;20006;-93
2022/08/05 01:17:21;;;;;;;6.80;2.47;;;23.10;63.00;;;;;;7391510;19;20029;-92
2022/08/05 01:19:54;;;;;;;10.05;2.75;;;23.20;63.00;;;;;;7384181;19;20161;-91
2022/08/05 01:22:44;;;;;;;8.93;2.83;;;23.10;63.20;;;;;;7384277;19;20039;-91
2022/08/05 01:25:45;;;;;;;12.15;2.90;;;23.00;63.80;;;;;;7385192;19;20146;-91
2022/08/05 01:28:28;;;;;;;7.55;3.05;;;22.90;65.50;;;;;;7398368;19;20076;-90
2022/08/05 01:31:03;;;;;;;10.95;2.97;;;22.90;67.50;;;;;;7397546;19;20103;-92
2022/08/05 01:33:37;;;;;;;14.85;4.00;;;23.00;66.20;;;;;;7417695;19;20034;-91
2022/08/05 01:36:12;;;;;;;15.10;3.80;;;22.90;67.60;;;;;;7403116;19;20018;-89
2022/08/05 01:38:42;;;;;;;7.47;3.08;;;22.90;70.20;;;;;;7404493;19;20002;-91
2022/08/05 01:41:15;;;;;;;8.85;2.80;;;22.90;68.70;;;;;;7404464;19;20006;-91
2022/08/05 01:43:48;;;;;;;8.70;3.00;;;22.90;68.60;;;;;;7395875;19;20007;-90
2022/08/05 01:46:18;;;;;;;6.28;2.53;;;23.00;68.20;;;;;;7406338;19;20015;-88
2022/08/05 01:48:48;;;;;;;20.42;4.43;;;23.00;65.90;;;;;;7413648;19;20018;-88
2022/08/05 01:51:19;;;;;;;18.42;4.50;;;23.00;67.40;;;;;;7387303;19;20039;-88
2022/08/05 01:53:51;;;;;;;13.98;4.30;;;23.00;69.00;;;;;;7391279;19;20027;-88
2022/08/05 01:56:21;;;;;;;16.58;4.53;;;23.00;68.30;;;;;;7403334;19;20011;-90
2022/08/05 02:04:05;;;;;;;15.25;4.18;;;23.10;71.20;;;;;;7398203;19;19922;-89
2022/08/05 02:06:35;;;;;;;12.80;3.60;;;23.10;71.20;;;;;;7422814;19;20010;-90
2022/08/05 02:09:04;;;;;;;14.00;3.67;;;23.20;71.30;;;;;;7326550;19;20050;-86
2022/08/05 02:11:44;;;;;;;7.63;3.00;;;23.20;71.10;;;;;;7326073;19;20019;-86
2022/08/05 02:14:16;;;;;;;13.23;3.55;;;23.30;70.60;;;;;;7335211;19;20105;-90
2022/08/05 02:19:34;;;;;;;12.98;3.30;;;23.30;68.20;;;;;;7286044;19;20034;-88
2022/08/05 02:27:14;;;;;;;10.00;2.88;;;22.90;68.50;;;;;;7398233;19;20034;-92
2022/08/05 02:29:45;;;;;;;7.88;3.22;;;22.90;68.00;;;;;;7398684;19;20018;-90
2022/08/05 02:32:17;;;;;;;8.10;2.83;;;22.90;68.40;;;;;;7401675;19;20006;-92
2022/08/05 02:45:34;;;;;;;9.90;3.70;;;22.80;68.80;;;;;;7359936;19;20055;-92
2022/08/05 02:48:05;;;;;;;13.55;3.50;;;22.60;66.70;;;;;;7340961;19;20046;-90
2022/08/05 02:50:34;;;;;;;6.78;3.08;;;22.50;68.70;;;;;;7339097;19;20196;-90
2022/08/05 02:58:18;;;;;;;9.63;2.92;;;22.60;67.90;;;;;;7347205;19;20032;-93
2022/08/05 03:13:46;;;;;;;7.93;2.70;;;22.80;68.90;;;;;;7410794;19;20006;-92
2022/08/05 03:21:26;;;;;;;10.43;3.38;;;23.00;68.80;;;;;;7345230;19;20019;-92
2022/08/05 03:29:09;;;;;;;11.65;3.50;;;23.00;66.70;;;;;;7337397;19;20005;-91
2022/08/05 03:36:48;;;;;;;8.15;2.83;;;23.00;68.80;;;;;;7321431;19;20010;-89
2022/08/05 03:44:30;;;;;;;6.65;3.35;;;23.10;68.00;;;;;;7371628;19;19995;-85
2022/08/05 03:46:59;;;;;;;;;;;23.10;68.20;;;;;;7409120;19;20002;-91
2022/08/05 03:49:27;;;;;;;6.78;3.33;;;23.10;68.60;;;;;;7409630;19;19918;-94
2022/08/05 03:52:01;;;;;;;6.20;3.10;;;23.20;68.90;;;;;;7407145;19;19999;-92
2022/08/05 03:54:37;;;;;;;9.80;3.53;;;23.20;68.50;;;;;;7428704;19;20002;-92
2022/08/05 03:57:11;;;;;;;8.02;3.10;;;23.10;68.70;;;;;;7409108;19;19994;-92
2022/08/05 03:59:45;;;;;;;6.95;2.88;;;23.20;68.60;;;;;;7408596;19;20002;-94
2022/08/05 04:02:16;;;;;;;9.32;3.20;;;23.20;68.10;;;;;;7408144;19;19998;-94
2022/08/05 04:04:46;;;;;;;15.18;3.33;;;23.20;68.30;;;;;;7407928;19;20030;-93
2022/08/05 04:07:15;;;;;;;8.75;3.38;;;23.20;67.90;;;;;;7407659;19;19995;-92
2022/08/05 04:09:44;;;;;;;7.35;3.55;;;23.10;67.50;;;;;;7428570;19;19990;-94
2022/08/05 04:12:13;;;;;;;10.93;3.53;;;23.10;67.50;;;;;;7408015;19;19995;-92
2022/08/05 04:14:46;;;;;;;7.95;3.25;;;23.00;67.70;;;;;;7408293;19;19998;-94
2022/08/05 04:19:56;;;;;;;10.68;3.67;;;23.00;67.60;;;;;;7329914;19;20011;-89
2022/08/05 04:35:25;;;;;;;9.85;3.78;;;22.90;68.20;;;;;;7359317;19;20042;-85
2022/08/05 04:37:53;;;;;;;10.00;3.60;;;22.90;68.20;;;;;;7407057;19;19998;-93
2022/08/05 04:40:22;;;;;;;8.75;3.17;;;22.90;68.20;;;;;;7407018;19;20002;-95
2022/08/05 04:48:10;;;;;;;8.35;3.45;;;22.80;67.50;;;;;;7370939;19;20031;-85
2022/08/05 04:50:47;;;;;;;10.48;3.78;;;22.70;67.20;;;;;;7427898;19;19994;-93
2022/08/05 04:53:17;;;;;;;10.77;3.90;;;22.70;67.20;;;;;;7405702;19;19994;-92
2022/08/05 04:55:48;;;;;;;8.17;3.20;;;22.70;67.70;;;;;;7405654;19;19995;-93
2022/08/05 04:58:19;;;;;;;6.25;3.20;;;22.70;68.60;;;;;;7406089;19;20021;-91
2022/08/05 05:00:47;;;;;;;10.18;3.47;;;22.80;68.20;;;;;;7427351;19;19998;-91
2022/08/05 05:03:16;;;;;;;6.85;3.33;;;22.70;67.90;;;;;;7406966;19;20034;-92
2022/08/05 05:26:43;;;;;;;6.90;3.40;;;23.00;68.10;;;;;;7359392;19;20015;-90
2022/08/05 06:03:48;;;;;;;5.57;3.55;;;23.00;65.20;;;;;;7352532;19;20011;-85
2022/08/05 06:08:52;;;;;;;8.93;3.40;;;23.00;64.70;;;;;;7379270;19;19995;-90
2022/08/05 06:19:09;;;;;;;7.47;3.33;;;22.90;65.20;;;;;;7325848;19;20230;-86
2022/08/05 06:26:49;;;;;;;15.25;3.45;;;22.70;63.80;;;;;;7342872;19;20015;-91
2022/08/05 06:29:18;;;;;;;13.82;3.70;;;22.70;63.60;;;;;;7312332;19;20014;-91
2022/08/05 06:34:32;;;;;;;7.80;3.40;;;22.80;64.60;;;;;;7345273;19;20187;-94
2022/08/05 06:42:19;;;;;;;12.02;4.43;;;22.80;64.80;;;;;;7378740;19;20022;-85
2022/08/05 06:50:07;;;;;;;9.88;3.42;;;23.00;64.10;;;;;;7377986;19;20719;-83
2022/08/05 06:52:36;;;;;;;10.25;3.28;;;22.90;62.90;;;;;;7381613;19;20007;-85
2022/08/05 06:55:06;;;;;;;7.88;3.38;;;23.00;63.80;;;;;;7379208;19;20035;-85
2022/08/05 06:57:35;;;;;;;9.48;3.00;;;23.10;63.80;;;;;;7398626;19;20375;-87
2022/08/05 07:03:41;;;;;;;13.90;3.70;;;23.10;62.50;;;;;;7381359;19;20018;-87
2022/08/05 07:06:13;;;;;;;8.43;3.10;;;23.00;63.30;;;;;;7378067;19;20006;-86
2022/08/05 07:08:41;;;;;;;11.85;3.60;;;23.00;62.00;;;;;;7377443;19;20023;-86
2022/08/05 07:11:10;;;;;;;14.77;3.65;;;22.80;63.30;;;;;;7377659;19;20032;-86
2022/08/05 07:19:01;;;;;;;9.88;3.38;;;22.80;63.00;;;;;;7377839;19;20018;-83
2022/08/05 07:21:32;;;;;;;15.43;3.70;;;22.80;63.10;;;;;;7398463;19;20014;-85
2022/08/05 07:24:01;;;;;;;;;;;22.90;63.30;;;;;;7376719;19;20090;-85
2022/08/05 07:26:29;;;;;;;10.20;3.35;;;22.90;62.80;;;;;;7374064;19;19954;-84
2022/08/05 07:28:58;;;;;;;13.05;3.72;;;22.90;63.10;;;;;;7375346;19;20091;-85
2022/08/05 07:31:27;;;;;;;8.68;3.53;;;22.90;63.30;;;;;;7382277;19;20015;-82
2022/08/05 07:33:55;;;;;;;14.02;3.88;;;22.90;63.50;;;;;;7371554;19;20471;-82
2022/08/05 07:36:24;;;;;;;16.25;3.60;;;23.00;63.80;;;;;;7395094;19;20022;-82
2022/08/05 07:38:56;;;;;;;12.60;4.22;;;23.00;64.10;;;;;;7374827;19;20081;-83
2022/08/05 07:41:26;;;;;;;27.80;4.18;;;23.00;62.90;;;;;;7376383;19;20077;-84
2022/08/05 07:43:56;;;;;;;15.88;4.10;;;23.00;63.40;;;;;;7378217;19;20014;-84
2022/08/05 07:46:25;;;;;;;10.88;3.42;;;23.00;63.60;;;;;;7374411;19;20474;-83
2022/08/05 07:48:55;;;;;;;11.25;3.70;;;23.20;64.20;;;;;;7386903;19;20037;-81
2022/08/05 07:51:24;;;;;;;9.50;3.38;;;23.20;63.80;;;;;;7395072;19;20027;-84
2022/08/05 07:53:55;;;;;;;9.73;3.40;;;23.20;63.80;;;;;;7372183;19;20505;-84
2022/08/05 07:56:23;;;;;;;;;;;23.20;63.40;;;;;;7378978;19;20022;-86
2022/08/05 07:58:52;;;;;;;15.55;3.72;;;23.40;63.50;;;;;;7376430;19;20310;-84
2022/08/05 08:01:23;;;;;;;18.00;3.85;;;23.20;62.60;;;;;;7377578;19;20035;-83
2022/08/05 08:03:52;;;;;;;;;;;23.30;62.50;;;;;;7398058;19;20025;-83
2022/08/05 08:06:21;;;;;;;16.75;3.50;;;23.40;63.00;;;;;;7375780;19;20207;-83
2022/08/05 08:08:49;;;;;;;14.57;4.00;;;23.30;62.90;;;;;;7374250;19;20010;-84
2022/08/05 08:11:21;;;;;;;9.15;3.60;;;23.10;63.20;;;;;;7375058;19;20044;-83
2022/08/05 08:13:56;;;;;;;;;;;23.10;63.70;;;;;;7373398;19;20032;-84
2022/08/05 08:16:25;;;;;;;11.77;3.40;;;23.10;63.90;;;;;;7374682;19;20231;-83
2022/08/05 08:18:54;;;;;;;10.15;3.45;;;23.10;63.20;;;;;;7390317;19;20479;-81
2022/08/05 08:21:22;;;;;;;15.35;3.10;;;23.10;62.30;;;;;;7397658;19;20025;-84
2022/08/05 08:23:51;;;;;;;9.95;3.30;;;23.20;62.80;;;;;;7372046;19;20078;-84
2022/08/05 08:26:23;;;;;;;12.55;3.30;;;23.20;61.90;;;;;;7375765;19;20021;-87
2022/08/05 08:28:52;;;;;;;9.38;2.75;;;23.20;62.30;;;;;;7375906;19;20022;-88
2022/08/05 08:31:20;;;;;;;8.65;3.30;;;23.20;61.90;;;;;;7375472;19;20085;-87
2022/08/05 08:33:49;;;;;;;13.10;4.10;;;23.10;61.40;;;;;;7397571;19;20090;-87
2022/08/05 08:36:18;;;;;;;9.52;3.50;;;23.10;62.00;;;;;;7379618;19;20022;-87
2022/08/05 08:38:46;;;;;;;11.45;3.53;;;23.00;62.90;;;;;;7375920;19;20434;-88
2022/08/05 08:41:17;;;;;;;10.48;3.88;;;23.10;62.70;;;;;;7375877;19;20027;-88
2022/08/05 08:43:49;;;;;;;11.43;3.88;;;23.00;62.50;;;;;;7376529;19;20018;-89
2022/08/05 08:46:20;;;;;;;11.18;4.18;;;22.90;62.50;;;;;;7378871;19;20295;-89
2022/08/05 08:48:50;;;;;;;;;;;22.70;62.20;;;;;;7399491;19;20018;-88
2022/08/05 08:51:21;;;;;;;12.23;3.88;;;22.90;63.20;;;;;;7379710;19;20305;-89
2022/08/05 08:53:52;;;;;;;13.77;3.80;;;23.10;63.50;;;;;;7378372;19;20054;-90
2022/08/05 08:56:22;;;;;;;9.75;3.67;;;23.00;62.40;;;;;;7379507;19;20011;-87
2022/08/05 08:58:54;;;;;;;13.50;4.10;;;23.00;62.40;;;;;;7376223;19;20057;-88
2022/08/05 09:01:23;;;;;;;13.73;4.30;;;23.00;62.90;;;;;;7378564;19;20418;-87
2022/08/05 09:03:56;;;;;;;10.05;3.67;;;22.90;62.20;;;;;;7400074;19;20031;-88
2022/08/05 09:06:26;;;;;;;16.25;4.85;;;22.90;63.30;;;;;;7377199;19;20075;-86
2022/08/05 09:08:54;;;;;;;10.23;3.97;;;22.90;62.60;;;;;;7376526;19;20018;-87
2022/08/05 09:11:23;;;;;;;11.73;3.75;;;22.90;62.40;;;;;;7376212;19;20027;-87
2022/08/05 09:13:55;;;;;;;10.57;3.53;;;22.90;63.10;;;;;;7376858;19;20081;-89
2022/08/05 09:16:24;;;;;;;14.40;3.95;;;23.20;63.20;;;;;;7374857;19;20436;-88
2022/08/05 09:18:53;;;;;;;7.68;3.63;;;23.20;61.90;;;;;;7397255;19;20011;-86
2022/08/05 09:21:22;;;;;;;10.10;4.10;;;23.10;62.50;;;;;;7375145;19;20322;-90
2022/08/05 09:24:04;;;;;;;10.43;3.60;;;23.10;62.00;;;;;;7375850;19;20010;-88
2022/08/05 09:26:33;;;;;;;10.05;3.80;;;23.20;61.10;;;;;;7375533;19;20609;-88
2022/08/05 09:29:08;;;;;;;8.23;2.55;;;23.30;61.00;;;;;;7382204;19;20339;-87
2022/08/05 09:31:37;;;;;;;9.27;2.97;;;23.50;60.70;;;;;;7376810;19;20091;-89
2022/08/05 09:34:09;;;;;;;8.32;2.45;;;23.70;59.20;;;;;;7374829;19;20447;-88
2022/08/05 09:36:45;;;;;;;5.82;2.65;;;23.70;58.40;;;;;;7397552;19;20022;-89
2022/08/05 09:39:16;;;;;;;8.80;2.40;;;23.60;57.80;;;;;;7379330;19;20018;-89
2022/08/05 09:41:58;;;;;;;13.95;2.90;;;23.70;57.40;;;;;;7378437;19;20037;-87
2022/08/05 09:44:44;;;;;;;9.77;3.00;;;23.80;57.00;;;;;;7380012;19;20113;-86
2022/08/05 09:47:15;;;;;;;13.15;2.75;;;23.70;57.10;;;;;;7378533;19;20014;-85
2022/08/05 09:49:47;;;;;;;5.38;2.10;;;23.70;56.60;;;;;;7383411;19;20079;-92
2022/08/05 09:52:25;;;;;;;8.27;2.20;;;23.70;55.60;;;;;;7395563;19;20026;-91
2022/08/05 09:54:56;;;;;;;10.32;2.67;;;23.40;55.60;;;;;;7397586;19;20043;-87
2022/08/05 09:57:38;;;;;;;7.82;2.08;;;23.40;55.80;;;;;;7397170;19;20014;-87
2022/08/05 10:00:13;;;;;;;7.72;2.58;;;23.40;56.30;;;;;;7379864;19;20055;-86
2022/08/05 10:02:44;;;;;;;11.07;2.42;;;23.50;56.90;;;;;;7380236;19;20015;-88
2022/08/05 10:05:21;;;;;;;9.10;2.10;;;23.80;56.90;;;;;;7378758;19;20019;-88
2022/08/05 10:07:55;;;;;;;6.45;2.25;;;24.10;56.60;;;;;;7379701;19;20006;-88
2022/08/05 10:10:26;;;;;;;9.88;2.33;;;24.10;56.20;;;;;;7382357;19;20011;-92
2022/08/05 10:12:58;;;;;;;8.77;2.80;;;24.10;54.70;;;;;;7396382;19;20018;-91
2022/08/05 10:15:34;;;;;;;6.97;2.60;;;24.00;55.20;;;;;;7400982;19;20090;-90
2022/08/05 10:18:14;;;;;;;9.02;2.40;;;23.90;55.60;;;;;;7384543;19;20018;-86
2022/08/05 10:20:46;;;;;;;8.30;2.50;;;24.20;56.10;;;;;;7381889;19;20162;-88
2022/08/05 10:23:17;;;;;;;9.30;2.97;;;24.30;55.60;;;;;;7378404;19;20055;-88
2022/08/05 10:25:45;;;;;;;;;;;24.30;55.50;;;;;;7384218;19;20450;-89
2022/08/05 10:28:14;;;;;;;10.80;3.30;;;24.60;55.10;;;;;;7392857;19;19923;-89
2022/08/05 10:30:49;;;;;;;10.27;3.13;;;24.60;54.40;;;;;;7411875;19;20022;-90
2022/08/05 10:33:22;;;;;;;10.55;3.40;;;24.70;53.30;;;;;;7380706;19;20074;-89
2022/08/05 10:35:51;;;;;;;14.88;3.58;;;24.80;52.20;;;;;;7385566;19;20039;-93
2022/08/05 10:38:22;;;;;;;11.20;3.22;;;24.80;52.50;;;;;;7386371;19;20015;-92
2022/08/05 10:41:00;;;;;;;8.98;3.58;;;24.80;53.40;;;;;;7377118;19;20105;-87
2022/08/05 10:43:45;;;;;;;9.35;3.78;;;24.70;54.00;;;;;;7380507;19;20010;-87
2022/08/05 10:46:22;;;;;;;7.45;3.15;;;24.70;53.40;;;;;;7378894;19;20019;-88
2022/08/05 10:48:52;;;;;;;6.70;4.10;;;24.90;52.70;;;;;;7401835;19;20015;-90
2022/08/05 10:51:22;;;;;;;7.15;3.42;;;24.90;52.10;;;;;;7389663;19;20356;-88
2022/08/05 10:53:56;;;;;;;11.65;3.67;;;25.10;50.90;;;;;;7382191;19;20051;-92
2022/08/05 10:56:27;;;;;;;12.55;3.53;;;24.90;50.30;;;;;;7384054;19;20027;-90
2022/08/05 10:59:08;;;;;;;6.85;3.60;;;24.90;51.10;;;;;;7381400;19;20363;-89
2022/08/05 11:01:41;;;;;;;7.75;3.50;;;25.10;50.90;;;;;;7379326;19;20028;-89
2022/08/05 11:04:13;;;;;;;10.57;3.83;;;25.10;51.30;;;;;;7378643;19;20010;-91
2022/08/05 11:07:10;;;;;;;9.60;3.55;;;25.30;51.00;;;;;;7410534;19;19998;-91
2022/08/05 11:09:50;;;;;;;9.18;3.42;;;25.30;50.30;;;;;;7377545;19;20628;-82
2022/08/05 11:12:46;;;;;;;6.93;3.63;;;25.20;50.80;;;;;;7377904;19;20086;-92
2022/08/05 11:15:21;;;;;;;6.07;3.40;;;25.20;50.40;;;;;;7380723;19;20010;-94
2022/08/05 11:17:54;;;;;;;10.70;3.33;;;25.20;51.10;;;;;;7379622;19;20018;-90
2022/08/05 11:20:39;;;;;;;10.30;3.50;;;25.40;50.80;;;;;;7337551;19;21425;-88
2022/08/05 11:23:35;;;;;;;7.40;3.20;;;25.50;50.20;;;;;;7380605;19;20015;-92
2022/08/05 11:26:07;;;;;;;6.00;3.10;;;25.60;49.60;;;;;;7369916;19;20338;-90
2022/08/05 11:28:46;;;;;;;9.88;3.55;;;25.80;50.00;;;;;;7387638;19;20022;-91
2022/08/05 11:31:29;;;;;;;6.25;2.90;;;25.90;49.50;;;;;;7389005;19;20402;-91
2022/08/05 11:34:06;;;;;;;6.82;2.88;;;25.90;48.80;;;;;;7392109;19;20047;-89
2022/08/05 11:36:56;;;;;;;8.00;2.78;;;25.80;48.70;;;;;;7414466;19;20462;-91
2022/08/05 11:39:50;;;;;;;13.10;3.40;;;25.70;49.80;;;;;;7381973;19;20010;-88
2022/08/05 11:42:25;;;;;;;8.98;3.30;;;25.60;49.50;;;;;;7382913;19;20035;-89
2022/08/05 11:45:04;;;;;;;5.72;3.10;;;25.70;49.80;;;;;;7387112;19;20018;-93
2022/08/05 11:47:33;;;;;;;6.70;3.30;;;25.60;49.90;;;;;;7396052;19;20015;-91
2022/08/05 11:50:34;;;;;;;10.40;3.08;;;25.90;49.40;;;;;;7375141;19;20393;-84
2022/08/05 11:53:08;;;;;;;6.03;2.60;;;26.00;49.50;;;;;;7374474;19;20026;-85
2022/08/05 11:55:37;;;;;;;10.45;2.80;;;26.00;48.40;;;;;;7372534;19;20028;-85
2022/08/05 11:58:06;;;;;;;9.57;2.58;;;26.00;48.70;;;;;;7379877;19;20026;-86
2022/08/05 12:00:35;;;;;;;12.63;3.15;;;26.00;49.20;;;;;;7394885;19;20066;-86
2022/08/05 12:03:19;;;;;;;6.82;2.90;;;26.20;48.70;;;;;;7369889;19;20030;-87
2022/08/05 12:05:48;;;;;;;6.80;2.20;;;26.30;47.30;;;;;;7373202;19;20026;-85
2022/08/05 12:08:19;;;;;;;11.30;3.08;;;26.40;48.00;;;;;;7372363;19;20513;-90
2022/08/05 12:10:51;;;;;;;11.00;2.75;;;26.60;47.70;;;;;;7373355;19;20467;-89
2022/08/05 12:13:19;;;;;;;;;;;26.70;47.00;;;;;;7374421;19;20006;-88
2022/08/05 12:15:48;;;;;;;5.22;2.70;;;26.70;47.20;;;;;;7391448;19;19918;-86
2022/08/05 12:18:20;;;;;;;14.27;3.10;;;26.70;47.30;;;;;;7373247;19;20011;-86
2022/08/05 12:20:49;;;;;;;5.43;2.63;;;26.80;47.60;;;;;;7376555;19;20434;-86
2022/08/05 12:23:21;;;;;;;11.77;3.15;;;26.90;47.30;;;;;;7383333;19;20017;-86
2022/08/05 12:25:54;;;;;;;8.55;3.05;;;26.70;46.90;;;;;;7386495;19;20025;-86
2022/08/05 12:28:34;;;;;;;16.42;3.35;;;26.50;47.00;;;;;;7402543;19;20019;-85
2022/08/05 12:31:03;;;;;;;3.33;2.25;;;26.40;46.60;;;;;;7372960;19;20018;-84
2022/08/05 12:33:32;;;;;;;5.80;3.13;;;26.50;47.00;;;;;;7374683;19;20026;-87
2022/08/05 12:36:03;;;;;;;9.18;2.92;;;26.60;47.00;;;;;;7371681;19;20014;-88
2022/08/05 12:38:35;;;;;;;6.28;3.03;;;26.80;46.20;;;;;;7370494;19;20078;-86
2022/08/05 12:41:04;;;;;;;6.70;2.50;;;26.80;46.10;;;;;;7367458;19;20113;-86
2022/08/05 12:43:32;;;;;;;5.90;2.50;;;26.80;46.60;;;;;;7369812;19;20459;-89
2022/08/05 12:46:01;;;;;;;10.65;2.92;;;26.70;45.20;;;;;;7391796;19;20022;-87
2022/08/05 12:48:41;;;;;;;5.97;2.95;;;26.70;45.10;;;;;;7368486;19;20019;-87
2022/08/05 12:51:16;;;;;;;7.28;2.80;;;26.90;45.40;;;;;;7369892;19;20010;-91
2022/08/05 12:53:48;;;;;;;5.90;2.83;;;27.00;45.80;;;;;;7370845;19;20414;-90
2022/08/05 12:56:23;;;;;;;9.27;2.40;;;26.90;44.40;;;;;;7367621;19;20022;-89
2022/08/05 12:59:14;;;;;;;6.15;2.15;;;26.70;44.40;;;;;;7370820;19;20018;-89
2022/08/05 13:01:43;;;;;;;8.25;2.55;;;26.60;44.90;;;;;;7371591;19;20018;-86
2022/08/05 13:04:14;;;;;;;5.97;2.47;;;26.60;45.20;;;;;;7391855;19;20486;-88
2022/08/05 13:06:44;;;;;;;4.78;1.98;;;26.50;45.20;;;;;;7369389;19;20458;-85
2022/08/05 13:09:16;;;;;;;8.48;2.42;;;26.80;45.30;;;;;;7369895;19;21467;-87
2022/08/05 13:11:46;;;;;;;5.88;1.90;;;26.80;45.00;;;;;;7369055;19;20454;-88
2022/08/05 13:14:21;;;;;;;7.40;2.17;;;26.80;44.40;;;;;;7369086;19;20007;-88
2022/08/05 13:16:54;;;;;;;4.90;1.85;;;27.00;44.80;;;;;;7371234;19;21870;-88
2022/08/05 13:19:25;;;;;;;2.97;1.60;;;27.20;43.60;;;;;;7392298;19;20042;-88
2022/08/05 13:21:54;;;;;;;6.50;2.22;;;27.40;43.60;;;;;;7367818;19;20038;-87
2022/08/05 13:24:26;;;;;;;12.23;2.30;;;27.40;44.00;;;;;;7367407;19;20051;-87
2022/08/05 13:26:55;;;;;;;8.27;2.50;;;27.30;44.50;;;;;;7370155;19;20023;-87
2022/08/05 13:29:24;;;;;;;5.80;2.28;;;27.40;45.00;;;;;;7373294;19;20015;-89
2022/08/05 13:31:53;;;;;;;5.43;2.05;;;27.40;44.70;;;;;;7370466;19;20021;-88
2022/08/05 13:34:21;;;;;;;8.05;1.90;;;27.30;45.10;;;;;;7389004;19;20048;-88
2022/08/05 13:36:50;;;;;;;6.15;2.17;;;27.50;45.30;;;;;;7368793;19;20010;-87
2022/08/05 13:39:19;;;;;;;5.65;2.15;;;27.80;45.90;;;;;;7367655;19;20011;-84
2022/08/05 13:41:50;;;;;;;8.60;2.28;;;27.80;44.30;;;;;;7369497;19;20032;-84
2022/08/05 13:44:20;;;;;;;6.05;2.00;;;27.90;44.00;;;;;;7368048;19;20023;-84
2022/08/05 13:46:49;;;;;;;6.00;1.60;;;27.80;43.40;;;;;;7367790;19;20573;-83
2022/08/05 13:49:18;;;;;;;4.93;2.13;;;28.00;43.70;;;;;;7388724;19;20085;-83
2022/08/05 13:51:47;;;;;;;3.70;1.83;;;28.00;42.90;;;;;;7365186;19;20027;-86
2022/08/05 13:54:19;;;;;;;7.70;2.05;;;28.20;42.80;;;;;;7367526;19;20035;-84
2022/08/05 13:56:50;;;;;;;5.90;1.92;;;28.30;41.60;;;;;;7370160;19;20018;-89
2022/08/05 13:59:19;;;;;;;4.13;1.75;;;28.10;42.20;;;;;;7370114;19;20007;-85
2022/08/05 14:01:48;;;;;;;5.90;2.03;;;28.00;43.60;;;;;;7366097;19;20854;-84
2022/08/05 14:06:58;;;;;;;4.40;1.88;;;27.50;42.80;;;;;;7365294;19;20436;-85
2022/08/05 14:09:28;;;;;;;7.00;1.90;;;27.60;43.40;;;;;;7366464;19;20089;-85
2022/08/05 14:12:00;;;;;;;4.78;1.73;;;27.70;42.70;;;;;;7369290;19;20433;-88
2022/08/05 14:14:28;;;;;;;5.43;1.52;;;27.70;42.50;;;;;;7368778;19;20031;-87
2022/08/05 14:16:57;;;;;;;7.68;2.10;;;27.60;41.60;;;;;;7363744;19;20025;-84
2022/08/05 14:19:26;;;;;;;4.43;1.73;;;27.50;42.20;;;;;;7390244;19;20015;-86
2022/08/05 14:22:24;;;;;;;8.43;2.20;;;27.40;42.30;;;;;;7366485;19;20441;-87
2022/08/05 14:25:08;;;;;;;9.18;1.80;;;27.40;42.70;;;;;;7364691;19;20086;-86
2022/08/05 14:27:56;;;;;;;13.63;1.85;;;27.60;42.40;;;;;;7368318;19;20021;-85
2022/08/05 14:30:25;;;;;;;5.30;1.80;;;27.40;42.70;;;;;;7375403;19;20018;-86
2022/08/05 14:32:54;;;;;;;7.32;2.05;;;27.50;43.40;;;;;;7374073;19;20050;-85
2022/08/05 14:35:23;;;;;;;4.45;1.80;;;27.60;43.10;;;;;;7374907;19;20577;-84
2022/08/05 14:37:52;;;;;;;4.10;1.92;;;27.80;42.00;;;;;;7373333;19;20631;-86
2022/08/05 14:40:21;;;;;;;7.78;1.70;;;27.80;41.70;;;;;;7394528;19;20017;-85
2022/08/05 14:42:49;;;;;;;4.75;1.52;;;28.00;41.90;;;;;;7376851;19;20018;-84
2022/08/05 14:45:21;;;;;;;9.73;1.95;;;27.90;41.70;;;;;;7375816;19;20014;-84
2022/08/05 14:47:49;;;;;;;4.97;1.52;;;27.90;41.80;;;;;;7377638;19;20019;-86
2022/08/05 14:50:18;;;;;;;5.70;1.40;;;28.00;41.80;;;;;;7377255;19;20047;-86
2022/08/05 14:52:47;;;;;;;3.97;1.33;;;28.10;41.00;;;;;;7375911;19;20044;-85
2022/08/05 14:55:16;;;;;;;4.88;1.60;;;28.00;41.40;;;;;;7396237;19;20015;-87
2022/08/05 14:57:45;;;;;;;5.72;1.70;;;28.10;41.50;;;;;;7378580;19;20151;-89
2022/08/05 15:00:14;;;;;;;2.42;1.33;;;28.30;41.80;;;;;;7379753;19;20027;-88
2022/08/05 15:02:46;;;;;;;4.55;1.27;;;28.30;40.40;;;;;;7379905;19;20034;-85
2022/08/05 15:05:15;;;;;;;6.43;2.00;;;28.10;39.80;;;;;;7380064;19;20035;-87
2022/08/05 15:07:44;;;;;;;4.80;1.48;;;28.10;40.90;;;;;;7377930;19;20018;-85
2022/08/05 15:10:13;;;;;;;5.68;1.58;;;28.00;40.90;;;;;;7397451;19;20046;-86
2022/08/05 15:12:41;;;;;;;5.50;1.55;;;27.80;41.00;;;;;;7377169;19;20063;-86
2022/08/05 15:15:12;;;;;;;1.73;1.20;;;27.70;41.50;;;;;;7391998;19;20118;-85
2022/08/05 15:17:41;;;;;;;3.90;1.55;;;27.60;41.90;;;;;;7381694;19;20018;-85
2022/08/05 15:20:13;;;;;;;7.55;1.52;;;27.70;41.70;;;;;;7378494;19;20125;-87
2022/08/05 15:22:42;;;;;;;6.13;1.67;;;27.70;41.60;;;;;;7379236;19;20716;-86
2022/08/05 15:25:12;;;;;;;4.15;1.60;;;27.80;41.10;;;;;;7404243;19;20018;-85
2022/08/05 15:27:40;;;;;;;2.88;1.67;;;27.50;40.80;;;;;;7385423;19;20445;-87
2022/08/05 15:30:10;;;;;;;2.45;1.48;;;27.30;41.10;;;;;;7382492;19;20014;-87
2022/08/05 15:32:43;;;;;;;4.57;1.40;;;27.30;41.50;;;;;;7377500;19;20084;-87
2022/08/05 15:35:14;;;;;;;6.45;1.33;;;27.40;41.80;;;;;;7373742;19;20053;-86
2022/08/05 15:37:43;;;;;;;3.15;1.50;;;27.60;41.20;;;;;;7372247;19;20446;-83
2022/08/05 15:40:13;;;;;;;3.65;1.30;;;27.70;40.80;;;;;;7389285;19;20031;-85
2022/08/05 15:42:42;;;;;;;4.97;1.53;;;27.70;40.40;;;;;;7373778;19;20672;-84
2022/08/05 15:45:12;;;;;;;3.00;1.20;;;27.80;40.50;;;;;;7374694;19;20007;-86
2022/08/05 15:47:41;;;;;;;4.22;1.77;;;27.80;39.90;;;;;;7368016;19;20442;-87
2022/08/05 15:50:11;;;;;;;2.92;1.35;;;27.90;40.50;;;;;;7367617;19;20038;-86
2022/08/05 15:52:45;;;;;;;2.03;1.13;;;28.00;40.20;;;;;;7366957;19;20044;-88
2022/08/05 15:55:15;;;;;;;3.67;1.25;;;28.10;40.40;;;;;;7393107;19;20042;-88
2022/08/05 15:57:47;;;;;;;10.53;1.70;;;28.20;40.00;;;;;;7373610;19;20022;-88
2022/08/05 16:00:18;;;;;;;3.65;1.17;;;28.70;39.80;;;;;;7374802;19;20586;-90
2022/08/05 16:02:46;;;;;;;5.57;1.30;;;29.30;38.50;;;;;;7373313;19;20457;-90
2022/08/05 16:05:15;;;;;;;6.10;1.23;;;29.90;37.30;;;;;;7373909;19;20023;-90
2022/08/05 16:07:47;;;;;;;6.15;1.52;;;29.80;36.90;;;;;;7374033;19;20520;-87
2022/08/05 16:10:16;;;;;;;5.15;1.48;;;29.80;37.40;;;;;;7393014;19;20018;-87
2022/08/05 16:12:45;;;;;;;5.60;1.30;;;29.80;36.70;;;;;;7371899;19;20042;-87
2022/08/05 16:15:14;;;;;;;4.07;1.40;;;29.60;36.80;;;;;;7372729;19;20019;-83
2022/08/05 16:17:43;;;;;;;3.67;1.30;;;28.80;38.00;;;;;;7370008;19;20058;-83
2022/08/05 16:20:12;;;;;;;2.42;1.45;;;28.70;38.20;;;;;;7369776;19;20006;-83
2022/08/05 16:22:41;;;;;;;4.43;1.48;;;28.40;38.70;;;;;;7368383;19;20027;-83